Terminal Aerodrome Forecast
Issued by NWS Wilmington, OH

Home | Current Version | Previous Version | Text Only | Print | Product List | Glossary On
Versions: 1 2 3 4 5 6 7 8 9 10 11 12 13 14 15 16
907
FTUS41 KILN 261135
TAFDAY
TAF
KDAY 261135Z 2612/2712 14005KT P6SM FEW250
     FM261900 18006KT P6SM FEW250
     FM270500 17005KT P6SM SCT045 BKN200
     FM270900 19005KT P6SM VCSH SCT045 OVC150=

USA.gov is the U.S. government's official web portal to all federal, state and local government web resources and services.